createdAt,value
2023-12-20T00:02:12.326Z,99563.31
2023-12-20T00:04:39.041Z,99561.59
2023-12-20T00:07:05.766Z,99563.19
2023-12-20T00:09:32.528Z,99553.81
2023-12-20T00:11:59.236Z,99561.47
2023-12-20T00:14:25.937Z,99549.50
2023-12-20T00:16:52.786Z,99553.47
2023-12-20T00:19:19.573Z,99539.38
2023-12-20T00:21:46.308Z,99538.81
2023-12-20T00:24:12.986Z,99527.28
2023-12-20T00:26:39.626Z,99532.22
2023-12-20T00:29:06.225Z,99518.72
2023-12-20T00:31:32.950Z,99526.94
2023-12-20T00:33:59.755Z,99531.56
2023-12-20T00:36:26.447Z,99523.72
2023-12-20T00:38:53.149Z,99539.22
2023-12-20T00:41:19.877Z,99536.78
2023-12-20T00:43:46.553Z,99544.31
2023-12-20T00:46:13.360Z,99524.69
2023-12-20T00:48:40.143Z,99519.41
2023-12-20T00:51:07.397Z,99513.16
2023-12-20T00:53:33.975Z,99525.38
2023-12-20T00:56:00.620Z,99517.53
2023-12-20T00:58:29.160Z,99521.75
2023-12-20T01:00:55.915Z,99520.97
2023-12-20T01:03:22.659Z,99511.09
2023-12-20T01:05:49.499Z,99511.09
2023-12-20T01:08:16.228Z,99497.44
2023-12-20T01:10:42.926Z,99501.47
2023-12-20T01:13:10.111Z,99498.53
2023-12-20T01:15:36.788Z,99489.59
2023-12-20T01:18:03.777Z,99495.22
2023-12-20T01:20:30.383Z,99489.25
2023-12-20T01:22:56.963Z,99477.25
2023-12-20T01:25:23.984Z,99480.28
2023-12-20T01:27:51.273Z,99476.56
2023-12-20T01:30:18.006Z,99483.25
2023-12-20T01:32:44.750Z,99467.75
2023-12-20T01:35:13.615Z,99476.31
2023-12-20T01:37:40.307Z,99480.69
2023-12-20T01:40:07.588Z,99486.66
2023-12-20T01:42:34.232Z,99490.19
2023-12-20T01:45:00.864Z,99467.97
2023-12-20T01:47:28.354Z,99468.22
2023-12-20T01:49:57.461Z,99460.81
2023-12-20T01:52:24.875Z,99465.97
2023-12-20T01:54:51.982Z,99466.25
2023-12-20T01:57:18.780Z,99449.78
2023-12-20T01:59:45.904Z,99468.34
2023-12-20T02:02:13.794Z,99470.47
2023-12-20T02:04:40.688Z,99459.78
2023-12-20T02:07:08.639Z,99469.06
2023-12-20T02:09:36.117Z,99456.03
2023-12-20T02:12:02.816Z,99469.28
2023-12-20T02:14:29.448Z,99448.63
2023-12-20T02:16:56.390Z,99443.84
2023-12-20T02:19:23.221Z,99443.47
2023-12-20T02:21:50.047Z,99440.88
2023-12-20T02:24:18.576Z,99450.28
2023-12-20T02:26:47.175Z,99458.84
2023-12-20T02:29:14.095Z,99454.63
2023-12-20T02:31:40.779Z,99449.22
2023-12-20T02:34:07.596Z,99444.75
2023-12-20T02:36:34.263Z,99432.88
2023-12-20T02:39:00.826Z,99450.75
2023-12-20T02:41:27.438Z,99442.41
2023-12-20T02:43:54.030Z,99437.00
2023-12-20T02:46:20.892Z,99418.06
2023-12-20T02:48:48.798Z,99423.84
2023-12-20T02:51:15.641Z,99447.47
2023-12-20T02:53:42.262Z,99436.41
2023-12-20T02:56:08.924Z,99429.25
2023-12-20T02:58:35.586Z,99405.91
2023-12-20T03:01:02.274Z,99422.69
2023-12-20T03:03:28.918Z,99447.47
2023-12-20T03:05:55.549Z,99442.75
2023-12-20T03:08:22.159Z,99418.72
2023-12-20T03:10:49.006Z,99427.00
2023-12-20T03:13:15.764Z,99421.47
2023-12-20T03:15:42.519Z,99423.34
2023-12-20T03:18:09.212Z,99427.94
2023-12-20T03:20:36.040Z,99422.53
2023-12-20T03:23:02.740Z,99433.59
2023-12-20T03:25:29.394Z,99422.78
2023-12-20T03:27:56.331Z,99422.22
2023-12-20T03:30:22.947Z,99411.13
2023-12-20T03:32:49.614Z,99414.41
2023-12-20T03:35:16.310Z,99400.22
2023-12-20T03:37:43.116Z,99392.34
2023-12-20T03:40:10.414Z,99404.91
2023-12-20T03:42:37.088Z,99411.97
2023-12-20T03:45:03.796Z,99415.16
2023-12-20T03:47:30.440Z,99402.34
2023-12-20T03:49:57.123Z,99408.09
2023-12-20T03:52:23.876Z,99413.50
2023-12-20T03:54:50.672Z,99407.50
2023-12-20T03:57:17.321Z,99401.06
2023-12-20T03:59:43.927Z,99410.78
2023-12-20T04:02:10.511Z,99409.75
2023-12-20T04:04:37.204Z,99408.91
2023-12-20T04:07:04.181Z,99412.44
2023-12-20T04:09:30.951Z,99404.06
2023-12-20T04:11:57.993Z,99409.47
2023-12-20T04:14:27.730Z,99405.16
2023-12-20T04:16:55.158Z,99414.09
2023-12-20T04:19:21.819Z,99401.63
2023-12-20T04:21:48.779Z,99407.59
2023-12-20T04:24:15.402Z,99405.97
2023-12-20T04:26:42.123Z,99398.56
2023-12-20T04:29:08.752Z,99392.00
2023-12-20T04:31:35.417Z,99396.69
2023-12-20T04:34:02.164Z,99412.53
2023-12-20T04:36:31.078Z,99410.66
2023-12-20T04:38:57.758Z,99401.84
2023-12-20T04:41:24.521Z,99405.16
2023-12-20T04:43:51.220Z,99402.81
2023-12-20T04:46:17.817Z,99401.97
2023-12-20T04:48:44.802Z,99405.50
2023-12-20T04:51:11.536Z,99406.56
2023-12-20T04:53:38.342Z,99409.00
2023-12-20T04:56:05.396Z,99417.94
2023-12-20T04:58:32.090Z,99404.69
2023-12-20T05:00:58.857Z,99421.25
2023-12-20T05:03:25.677Z,99417.25
2023-12-20T05:05:52.282Z,99415.03
2023-12-20T05:08:18.998Z,99401.97
2023-12-20T05:10:45.646Z,99414.88
2023-12-20T05:13:12.419Z,99423.78
2023-12-20T05:15:39.014Z,99430.84
2023-12-20T05:18:06.080Z,99416.28
2023-12-20T05:20:32.929Z,99415.19
2023-12-20T05:22:59.555Z,99415.47
2023-12-20T05:25:26.311Z,99417.00
2023-12-20T05:27:53.275Z,99431.19
2023-12-20T05:30:20.167Z,99430.94
2023-12-20T05:32:47.085Z,99439.06
2023-12-20T05:35:13.957Z,99425.44
2023-12-20T05:37:40.703Z,99445.31
2023-12-20T05:40:08.345Z,99426.16
2023-12-20T05:42:34.983Z,99435.88
2023-12-20T05:45:01.611Z,99434.56
2023-12-20T05:47:28.289Z,99442.94
2023-12-20T05:49:54.891Z,99450.22
2023-12-20T05:52:21.621Z,99445.66
2023-12-20T05:54:48.595Z,99455.16
2023-12-20T05:57:15.641Z,99451.63
2023-12-20T05:59:42.198Z,99454.34
2023-12-20T06:02:08.837Z,99456.00
2023-12-20T06:04:35.645Z,99464.66
2023-12-20T06:07:02.781Z,99465.28
2023-12-20T06:09:31.894Z,99471.47
2023-12-20T06:11:59.098Z,99473.13
2023-12-20T06:14:25.742Z,99470.22
2023-12-20T06:16:52.478Z,99462.88
2023-12-20T06:19:19.372Z,99458.22
2023-12-20T06:21:46.263Z,99468.91
2023-12-20T06:24:13.004Z,99472.44
2023-12-20T06:26:40.344Z,99467.59
2023-12-20T06:29:07.154Z,99475.72
2023-12-20T06:31:34.490Z,99475.94
2023-12-20T06:34:02.473Z,99475.72
2023-12-20T06:36:29.172Z,99478.97
2023-12-20T06:38:55.812Z,99485.22
2023-12-20T06:41:22.560Z,99494.41
2023-12-20T06:43:50.483Z,99502.03
2023-12-20T06:46:18.252Z,99507.44
2023-12-20T06:48:45.432Z,99503.94
2023-12-20T06:51:18.784Z,99498.19
2023-12-20T06:53:45.717Z,99509.34
2023-12-20T06:56:19.329Z,99511.56
2023-12-20T06:58:47.061Z,99508.28
2023-12-20T07:01:14.789Z,99509.84
2023-12-20T07:03:41.927Z,99511.72
2023-12-20T07:06:08.919Z,99527.56
2023-12-20T07:08:35.633Z,99532.16
2023-12-20T07:11:02.258Z,99528.38
2023-12-20T07:13:29.180Z,99532.75
2023-12-20T07:15:55.957Z,99524.03
2023-12-20T07:18:22.616Z,99522.84
2023-12-20T07:20:49.260Z,99524.72
2023-12-20T07:23:15.946Z,99515.69
2023-12-20T07:25:42.824Z,99535.44
2023-12-20T07:28:09.521Z,99534.63
2023-12-20T07:30:36.205Z,99535.31
2023-12-20T07:33:03.746Z,99538.78
2023-12-20T07:35:30.812Z,99549.59
2023-12-20T07:37:57.509Z,99536.63
2023-12-20T07:40:25.118Z,99527.69
2023-12-20T07:42:51.820Z,99526.63
2023-12-20T07:45:18.497Z,99530.53
2023-12-20T07:47:45.349Z,99530.63
2023-12-20T07:50:12.597Z,99537.19
2023-12-20T07:52:39.353Z,99532.59
2023-12-20T07:55:06.642Z,99514.50
2023-12-20T07:57:33.395Z,99515.81
2023-12-20T08:00:00.328Z,99523.34
2023-12-20T08:02:27.037Z,99524.41
2023-12-20T08:04:53.621Z,99523.84
2023-12-20T08:07:20.771Z,99525.13
2023-12-20T08:09:47.793Z,99530.88
2023-12-20T08:12:14.773Z,99520.88
2023-12-20T08:14:41.448Z,99526.75
2023-12-20T08:17:08.146Z,99536.03
2023-12-20T08:19:35.050Z,99533.72
2023-12-20T08:22:01.858Z,99534.09
2023-12-20T08:24:28.452Z,99545.06
2023-12-20T08:26:55.096Z,99539.16
2023-12-20T08:29:22.281Z,99532.75
2023-12-20T08:31:53.691Z,99533.06
2023-12-20T08:34:20.568Z,99536.41
2023-12-20T08:36:47.224Z,99533.59
2023-12-20T08:39:14.051Z,99523.75
2023-12-20T08:41:40.884Z,99529.94
2023-12-20T08:44:07.608Z,99530.50
2023-12-20T08:46:34.229Z,99535.38
2023-12-20T08:49:01.779Z,99535.31
2023-12-20T08:51:29.070Z,99535.28
2023-12-20T08:53:55.917Z,99535.03
2023-12-20T08:56:22.666Z,99532.09
2023-12-20T08:58:49.556Z,99560.50
2023-12-20T09:01:16.445Z,99557.50
2023-12-20T09:03:43.368Z,99554.16
2023-12-20T09:06:10.249Z,99548.53
2023-12-20T09:08:37.007Z,99551.31
2023-12-20T09:11:03.740Z,99550.78
2023-12-20T09:13:32.895Z,99553.91
2023-12-20T09:15:59.930Z,99547.59
2023-12-20T09:18:26.902Z,99557.22
2023-12-20T09:20:53.830Z,99550.47
2023-12-20T09:23:20.575Z,99551.75
2023-12-20T09:25:47.212Z,99540.00
2023-12-20T09:28:13.956Z,99550.13
2023-12-20T09:30:41.660Z,99547.13
2023-12-20T09:33:09.433Z,99544.13
2023-12-20T09:35:36.454Z,99548.22
2023-12-20T09:38:03.501Z,99545.06
2023-12-20T09:40:33.122Z,99534.84
2023-12-20T09:43:05.462Z,99524.47
2023-12-20T09:45:33.305Z,99532.44
2023-12-20T09:48:00.619Z,99516.91
2023-12-20T09:50:28.573Z,99506.34
2023-12-20T09:53:00.362Z,99519.81
2023-12-20T09:55:29.258Z,99506.44
2023-12-20T09:57:56.193Z,99505.16
2023-12-20T10:00:22.914Z,99518.47
2023-12-20T10:03:00.554Z,99504.22
2023-12-20T10:05:32.267Z,99500.59
2023-12-20T10:08:02.166Z,99498.09
2023-12-20T10:10:38.083Z,99496.53
2023-12-20T10:13:13.100Z,99488.25
2023-12-20T10:15:40.165Z,99500.69
2023-12-20T10:18:07.765Z,99498.53
2023-12-20T10:20:34.918Z,99478.44
2023-12-20T10:23:02.565Z,99483.50
2023-12-20T10:25:29.876Z,99480.47
2023-12-20T10:28:14.747Z,99485.88
2023-12-20T10:30:42.858Z,99475.56
2023-12-20T10:33:11.092Z,99467.47
2023-12-20T10:35:42.447Z,99476.84
2023-12-20T10:38:12.492Z,99469.41
2023-12-20T10:40:39.633Z,99455.66
2023-12-20T10:43:07.713Z,99472.31
2023-12-20T10:45:35.954Z,99451.56
2023-12-20T10:48:04.509Z,99450.94
2023-12-20T10:50:33.072Z,99433.41
2023-12-20T10:53:01.361Z,99433.34
2023-12-20T10:55:29.627Z,99432.03
2023-12-20T10:58:02.979Z,99428.53
2023-12-20T11:00:33.812Z,99425.00
2023-12-20T11:03:04.080Z,99423.56
2023-12-20T11:05:55.067Z,99426.22
2023-12-20T11:08:34.347Z,99442.56
2023-12-20T11:11:10.640Z,99438.47
2023-12-20T11:13:45.991Z,99435.25
2023-12-20T11:16:13.678Z,99435.19
2023-12-20T11:18:41.976Z,99418.13
2023-12-20T11:21:09.522Z,99420.34
2023-12-20T11:23:36.685Z,99419.13
2023-12-20T11:26:04.550Z,99422.47
2023-12-20T11:28:31.649Z,99433.00
2023-12-20T11:31:02.893Z,99431.31
2023-12-20T11:33:38.030Z,99418.78
2023-12-20T11:36:13.643Z,99423.91
2023-12-20T11:38:50.175Z,99430.53
2023-12-20T11:41:16.917Z,99421.25
2023-12-20T11:43:43.612Z,99416.41
2023-12-20T11:46:10.903Z,99404.09
2023-12-20T11:48:41.601Z,99421.28
2023-12-20T11:51:12.545Z,99407.66
2023-12-20T11:53:40.140Z,99403.84
2023-12-20T11:56:07.977Z,99402.03
2023-12-20T11:58:35.421Z,99394.06
2023-12-20T12:01:05.714Z,99383.59
2023-12-20T12:03:32.557Z,99384.47
2023-12-20T12:05:59.489Z,99374.91
2023-12-20T12:08:26.361Z,99367.97
2023-12-20T12:10:53.398Z,99365.81
2023-12-20T12:13:20.209Z,99371.50
2023-12-20T12:15:48.164Z,99367.97
2023-12-20T12:18:19.241Z,99357.38
2023-12-20T12:20:47.024Z,99357.06
2023-12-20T12:23:13.740Z,99356.78
2023-12-20T12:25:42.908Z,99363.25
2023-12-20T12:28:11.556Z,99352.97
2023-12-20T12:30:39.680Z,99341.53
2023-12-20T12:33:13.620Z,99341.28
2023-12-20T12:35:41.670Z,99329.09
2023-12-20T12:38:09.960Z,99326.09
2023-12-20T12:40:39.686Z,99333.47
2023-12-20T12:43:07.428Z,99332.72
2023-12-20T12:45:34.156Z,99332.97
2023-12-20T12:48:00.890Z,99321.34
2023-12-20T12:50:29.831Z,99320.38
2023-12-20T12:52:56.873Z,99310.03
2023-12-20T12:55:23.576Z,99315.13
2023-12-20T12:57:50.371Z,99305.00
2023-12-20T13:00:17.246Z,99287.44
2023-12-20T13:02:44.250Z,99304.03
2023-12-20T13:05:11.101Z,99294.47
2023-12-20T13:07:38.968Z,99306.38
2023-12-20T13:10:07.093Z,99308.81
2023-12-20T13:12:33.876Z,99304.72
2023-12-20T13:15:00.640Z,99297.19
2023-12-20T13:17:29.468Z,99289.84
2023-12-20T13:19:57.237Z,99284.13
2023-12-20T13:22:24.491Z,99269.09
2023-12-20T13:24:51.193Z,99275.34
2023-12-20T13:27:17.840Z,99282.13
2023-12-20T13:29:44.407Z,99282.69
2023-12-20T13:32:11.178Z,99260.63
2023-12-20T13:34:37.971Z,99277.75
2023-12-20T13:37:05.812Z,99284.84
2023-12-20T13:39:32.975Z,99258.69
2023-12-20T13:42:01.250Z,99279.09
2023-12-20T13:44:28.473Z,99280.44
2023-12-20T13:46:55.246Z,99272.53
2023-12-20T13:49:22.502Z,99269.25
2023-12-20T13:51:49.463Z,99258.06
2023-12-20T13:54:17.761Z,99261.28
2023-12-20T13:56:56.073Z,99253.66
2023-12-20T13:59:29.577Z,99251.44
2023-12-20T14:01:58.335Z,99249.25
2023-12-20T14:04:40.927Z,99243.72
2023-12-20T14:07:11.510Z,99250.59
2023-12-20T14:09:38.729Z,99239.22
2023-12-20T14:12:06.195Z,99229.72
2023-12-20T14:14:32.875Z,99238.97
2023-12-20T14:16:59.468Z,99232.19
2023-12-20T14:19:26.152Z,99237.34
2023-12-20T14:21:53.318Z,99232.16
2023-12-20T14:24:20.242Z,99234.13
2023-12-20T14:26:46.796Z,99229.50
2023-12-20T14:29:13.494Z,99228.94
2023-12-20T14:31:41.374Z,99234.31
2023-12-20T14:34:08.361Z,99230.28
2023-12-20T14:36:36.201Z,99221.50
2023-12-20T14:39:04.375Z,99232.81
2023-12-20T14:41:32.724Z,99237.72
2023-12-20T14:44:01.086Z,99232.50
2023-12-20T14:46:28.323Z,99218.25
2023-12-20T14:48:55.034Z,99234.97
2023-12-20T14:51:21.712Z,99215.88
2023-12-20T14:53:48.624Z,99218.59
2023-12-20T14:56:16.069Z,99234.38
2023-12-20T14:58:42.896Z,99224.19
2023-12-20T15:01:10.252Z,99234.28
2023-12-20T15:06:03.772Z,99233.13
2023-12-20T15:08:30.560Z,99243.47
2023-12-20T15:10:57.207Z,99239.47
2023-12-20T15:13:23.985Z,99226.75
2023-12-20T15:15:50.678Z,99236.84
2023-12-20T15:18:17.305Z,99197.53
2023-12-20T15:20:45.968Z,99230.16
2023-12-20T15:23:12.531Z,99231.47
2023-12-20T15:25:39.163Z,99217.88
2023-12-20T15:28:06.164Z,99232.19
2023-12-20T15:30:33.932Z,99235.41
2023-12-20T15:33:02.228Z,99227.53
2023-12-20T15:35:30.760Z,99230.19
2023-12-20T15:37:58.213Z,99226.06
2023-12-20T15:40:24.963Z,99226.84
2023-12-20T15:42:51.861Z,99224.31
2023-12-20T15:45:19.508Z,99235.63
2023-12-20T15:47:46.636Z,99237.09
2023-12-20T15:50:13.960Z,99226.84
2023-12-20T15:52:40.828Z,99239.63
2023-12-20T15:55:08.835Z,99238.59
2023-12-20T15:57:45.287Z,99249.75
2023-12-20T16:00:19.610Z,99249.25
2023-12-20T16:02:46.163Z,99261.75
2023-12-20T16:05:12.945Z,99239.75
2023-12-20T16:07:39.840Z,99250.94
2023-12-20T16:10:08.146Z,99258.81
2023-12-20T16:12:34.864Z,99228.94
2023-12-20T16:15:02.355Z,99245.25
2023-12-20T16:17:29.567Z,99249.88
2023-12-20T16:19:56.904Z,99256.09
2023-12-20T16:22:24.066Z,99243.06
2023-12-20T16:24:54.116Z,99254.72
2023-12-20T16:27:20.912Z,99245.47
2023-12-20T16:29:47.492Z,99237.59
2023-12-20T16:32:14.325Z,99239.44
2023-12-20T16:34:41.093Z,99256.19
2023-12-20T16:37:07.863Z,99245.03
2023-12-20T16:39:34.515Z,99266.50
2023-12-20T16:42:01.226Z,99251.59
2023-12-20T16:44:27.819Z,99249.13
2023-12-20T16:46:54.593Z,99250.28
2023-12-20T16:49:21.689Z,99245.34
2023-12-20T16:51:48.972Z,99253.25
2023-12-20T16:54:15.593Z,99251.34
2023-12-20T16:56:42.375Z,99254.63
2023-12-20T16:59:09.013Z,99252.47
2023-12-20T17:01:36.373Z,99256.00
2023-12-20T17:04:03.284Z,99259.78
2023-12-20T17:06:30.276Z,99252.47
2023-12-20T17:08:56.929Z,99267.69
2023-12-20T17:11:23.583Z,99252.19
2023-12-20T17:13:50.259Z,99258.72
2023-12-20T17:16:17.052Z,99252.97
2023-12-20T17:18:49.903Z,99270.63
2023-12-20T17:21:18.010Z,99263.78
2023-12-20T17:23:46.743Z,99268.63
2023-12-20T17:26:15.977Z,99259.59
2023-12-20T17:28:43.473Z,99243.75
2023-12-20T17:31:10.674Z,99256.66
2023-12-20T17:33:37.750Z,99261.75
2023-12-20T17:36:04.782Z,99272.59
2023-12-20T17:38:31.612Z,99271.78
2023-12-20T17:40:58.519Z,99266.06
2023-12-20T17:43:25.705Z,99269.56
2023-12-20T17:45:52.433Z,99281.72
2023-12-20T17:48:19.220Z,99278.66
2023-12-20T17:50:45.856Z,99286.22
2023-12-20T17:53:12.742Z,99289.94
2023-12-20T17:55:39.569Z,99285.03
2023-12-20T17:58:06.297Z,99292.31
2023-12-20T18:00:35.726Z,99296.69
2023-12-20T18:03:03.204Z,99276.34
2023-12-20T18:05:30.490Z,99299.06
2023-12-20T18:07:57.444Z,99306.63
2023-12-20T18:10:24.253Z,99300.63
2023-12-20T18:12:50.942Z,99306.84
2023-12-20T18:15:19.455Z,99307.63
2023-12-20T18:17:46.840Z,99304.59
2023-12-20T18:20:16.345Z,99303.75
2023-12-20T18:22:43.980Z,99317.31
2023-12-20T18:25:10.823Z,99314.84
2023-12-20T18:27:37.487Z,99303.44
2023-12-20T18:30:15.168Z,99291.56
2023-12-20T18:32:43.804Z,99301.72
2023-12-20T18:35:11.180Z,99308.22
2023-12-20T18:37:38.112Z,99296.50
2023-12-20T18:40:05.779Z,99313.63
2023-12-20T18:42:33.194Z,99312.47
2023-12-20T18:45:01.056Z,99319.03
2023-12-20T18:47:28.058Z,99318.22
2023-12-20T18:49:54.881Z,99318.22
2023-12-20T18:52:21.853Z,99304.13
2023-12-20T18:54:51.364Z,99299.75
2023-12-20T18:57:18.291Z,99312.97
2023-12-20T18:59:44.961Z,99308.63
2023-12-20T19:02:13.678Z,99306.66
2023-12-20T19:04:40.609Z,99305.84
2023-12-20T19:07:07.505Z,99309.59
2023-12-20T19:09:34.341Z,99302.47
2023-12-20T19:12:00.991Z,99305.84
2023-12-20T19:14:27.625Z,99329.63
2023-12-20T19:16:55.129Z,99322.00
2023-12-20T19:19:22.156Z,99319.19
2023-12-20T19:21:49.119Z,99316.50
2023-12-20T19:24:15.745Z,99318.63
2023-12-20T19:26:42.514Z,99284.28
2023-12-20T19:29:09.210Z,99297.41
2023-12-20T19:31:35.970Z,99303.97
2023-12-20T19:34:02.763Z,99301.50
2023-12-20T19:36:29.529Z,99293.63
2023-12-20T19:38:56.286Z,99294.75
2023-12-20T19:41:22.977Z,99288.84
2023-12-20T19:43:49.714Z,99279.91
2023-12-20T19:46:16.430Z,99270.97
2023-12-20T19:48:44.561Z,99273.69
2023-12-20T19:51:12.151Z,99274.28
2023-12-20T19:53:38.900Z,99277.47
2023-12-20T19:56:06.017Z,99272.06
2023-12-20T19:58:33.673Z,99267.97
2023-12-20T20:01:00.471Z,99267.69
2023-12-20T20:03:27.267Z,99263.38
2023-12-20T20:05:54.128Z,99259.84
2023-12-20T20:08:20.950Z,99266.88
2023-12-20T20:10:47.726Z,99234.41
2023-12-20T20:13:16.410Z,99224.91
2023-12-20T20:15:43.408Z,99247.94
2023-12-20T20:18:13.177Z,99237.38
2023-12-20T20:20:40.106Z,99237.69
2023-12-20T20:23:06.797Z,99227.88
2023-12-20T20:25:34.069Z,99227.38
2023-12-20T20:28:01.216Z,99236.72
2023-12-20T20:30:28.615Z,99215.78
2023-12-20T20:32:55.486Z,99222.69
2023-12-20T20:35:22.434Z,99216.94
2023-12-20T20:37:50.045Z,99199.59
2023-12-20T20:40:20.136Z,99201.31
2023-12-20T20:42:47.234Z,99203.22
2023-12-20T20:45:15.236Z,99192.41
2023-12-20T20:47:43.007Z,99181.97
2023-12-20T20:50:11.049Z,99196.50
2023-12-20T20:52:38.428Z,99172.97
2023-12-20T20:55:05.629Z,99178.03
2023-12-20T20:57:32.465Z,99183.56
2023-12-20T20:59:59.321Z,99176.88
2023-12-20T21:02:26.382Z,99182.91
2023-12-20T21:04:53.228Z,99184.78
2023-12-20T21:07:22.491Z,99155.78
2023-12-20T21:09:50.908Z,99171.25
2023-12-20T21:12:18.091Z,99168.53
2023-12-20T21:14:45.475Z,99158.22
2023-12-20T21:17:15.411Z,99159.16
2023-12-20T21:19:42.074Z,99168.66
2023-12-20T21:22:08.974Z,99149.16
2023-12-20T21:24:36.411Z,99140.97
2023-12-20T21:27:03.649Z,99138.69
2023-12-20T21:29:30.423Z,99132.72
2023-12-20T21:31:57.246Z,99115.72
2023-12-20T21:34:24.074Z,99110.63
2023-12-20T21:36:51.014Z,99108.81
2023-12-20T21:39:20.293Z,99113.50
2023-12-20T21:41:47.041Z,99091.06
2023-12-20T21:44:13.753Z,99088.84
2023-12-20T21:46:41.757Z,99101.84
2023-12-20T21:49:09.069Z,99098.31
2023-12-20T21:51:35.959Z,99085.09
2023-12-20T21:54:04.477Z,99088.34
2023-12-20T21:56:31.224Z,99075.91
2023-12-20T21:58:58.551Z,99077.81
2023-12-20T22:01:25.563Z,99062.72
2023-12-20T22:03:52.867Z,99071.16
2023-12-20T22:06:19.632Z,99059.50
2023-12-20T22:08:46.317Z,99044.69
2023-12-20T22:11:13.114Z,99042.78
2023-12-20T22:13:40.342Z,99036.81
2023-12-20T22:16:08.552Z,99025.72
2023-12-20T22:18:35.491Z,99028.19
2023-12-20T22:21:02.398Z,99024.66
2023-12-20T22:23:28.964Z,99026.84
2023-12-20T22:25:55.715Z,99039.31
2023-12-20T22:28:22.535Z,99028.50
2023-12-20T22:30:49.251Z,99032.56
2023-12-20T22:33:16.063Z,99031.44
2023-12-20T22:35:44.396Z,99025.00
2023-12-20T22:38:11.314Z,99034.19
2023-12-20T22:40:38.179Z,99024.75
2023-12-20T22:43:05.099Z,99010.63
2023-12-20T22:45:33.910Z,99009.81
2023-12-20T22:48:00.753Z,98994.63
2023-12-20T22:50:27.573Z,98991.66
2023-12-20T22:52:54.290Z,98987.03
2023-12-20T22:55:21.046Z,98964.75
2023-12-20T22:57:48.079Z,98977.56
2023-12-20T23:00:18.531Z,98975.91
2023-12-20T23:02:45.135Z,98963.47
2023-12-20T23:05:11.776Z,98952.03
2023-12-20T23:07:38.388Z,98950.44
2023-12-20T23:10:05.763Z,98942.50
2023-12-20T23:12:32.824Z,98938.25
2023-12-20T23:14:59.484Z,98947.72
2023-12-20T23:17:26.078Z,98937.16
2023-12-20T23:19:52.779Z,98933.13
2023-12-20T23:22:19.530Z,98919.28
2023-12-20T23:24:47.678Z,98901.16
2023-12-20T23:27:16.649Z,98919.41
2023-12-20T23:29:43.324Z,98897.13
2023-12-20T23:32:09.936Z,98899.59
2023-12-20T23:34:36.658Z,98907.72
2023-12-20T23:37:04.778Z,98892.00
2023-12-20T23:39:31.480Z,98892.31
2023-12-20T23:41:58.189Z,98893.66
2023-12-20T23:44:24.835Z,98893.97
2023-12-20T23:46:51.386Z,98890.16
2023-12-20T23:49:18.061Z,98882.00
2023-12-20T23:51:44.694Z,98882.00
2023-12-20T23:54:11.289Z,98873.88
2023-12-20T23:56:39.041Z,98870.63
2023-12-20T23:59:06.073Z,98866.53
